This is the latest recevied weather packets stored in our database for station/object OE7BJT-13. If no packets are shown the sender has not sent any weather packets the latest 10 day(s).
| Time | Temp. | Humidity | Pressure | Rain* | Wind** | Luminosity | Snow |
|---|---|---|---|---|---|---|---|
| 1777938197 | 13.33° C | 63% | 1012 hPa | - | - | - | - |
| 1777937591 | 12.78° C | 65% | 1012 hPa | - | - | - | - |
| 1777936986 | 13.33° C | 63% | 1012 hPa | - | - | - | - |
| 1777936380 | 13.33° C | 62% | 1012 hPa | - | - | - | - |
| 1777935774 | 13.89° C | 62% | 1012 hPa | - | - | - | - |
| 1777935169 | 13.89° C | 59% | 1012 hPa | - | - | - | - |
| 1777934563 | 14.44° C | 54% | 1012 hPa | - | - | - | - |
| 1777933958 | 13.89° C | 61% | 1012 hPa | - | - | - | - |
| 1777932141 | 15° C | 55% | 1012 hPa | - | - | - | - |
| 1777931535 | 14.44° C | 55% | 1012 hPa | - | - | - | - |
| 1777930930 | 15.56° C | 52% | 1013 hPa | - | - | - | - |
| 1777929719 | 16.11° C | 44% | 1013 hPa | - | - | - | - |
| 1777929113 | 16.67° C | 42% | 1012 hPa | - | - | - | - |
| 1777928507 | 16.67° C | 42% | 1012 hPa | - | - | - | - |
| 1777927902 | 16.67° C | 42% | 1012 hPa | - | - | - | - |
| 1777927296 | 17.22° C | 38% | 1012 hPa | - | - | - | - |
| 1777926691 | 17.22° C | 39% | 1012 hPa | - | - | - | - |
| 1777926085 | 17.22° C | 39% | 1012 hPa | - | - | - | - |
| 1777925479 | 17.78° C | 39% | 1012 hPa | - | - | - | - |
| 1777924874 | 17.22° C | 40% | 1012 hPa | - | - | - | - |
| 1777924268 | 17.78° C | 39% | 1012 hPa | - | - | - | - |
| 1777923057 | 20° C | 30% | 1012 hPa | - | - | - | - |
| 1777922451 | 20° C | 29% | 1012 hPa | - | - | - | - |
| 1777921846 | 20.56° C | 29% | 1012 hPa | - | - | - | - |
| 1777921240 | 20.56° C | 29% | 1012 hPa | - | - | - | - |
* Rain since midnight (hover to see other rain measurements)
** Current wind speed in m/s (hover to see current wind gust speed)